Terminal Aerodrome Forecast
Issued by NWS

Home | Current Version | Previous Version | Text Only | Print | Product List | Glossary On
Versions: 1 2 3 4 5 6 7 8 9 10 11 12 13 14 15 16 17 18 19 20 21 22 23 24 25
000
FTUS44 KOUN 280522
TAFGAG
TAF
KGAG 280522Z 2806/2906 19015G24KT P6SM SCT050 BKN100
      TEMPO 2806/2808 -SHRA
     FM281100 28008KT P6SM SCT100
     FM290000 04009KT P6SM BKN080 PROB30 2900/2906 3SM SHRA OVC080=

USA.gov is the U.S. government's official web portal to all federal, state and local government web resources and services.